Home > Products > Valid Products > TAF

000
FTUS45 KLKN 140527
TAFELY
TAF
KELY 140527Z 1406/1506 17011KT P6SM BKN150
     FM141800 33007KT P6SM BKN050
     FM150200 VRB06KT P6SM VCSH OVC035=



000
FTUS45 KLKN 140527
TAFTPH
TAF
KTPH 140527Z 1406/1506 01011KT P6SM SCT200
     FM141800 34017G27KT P6SM BKN200
     FM150200 35011KT P6SM SCT200=



000
FTUS45 KLKN 140527
TAFWMC
TAF
KWMC 140527Z 1406/1506 20005KT P6SM OVC120
     FM141000 21005KT P6SM VCSH OVC050
     FM141800 25007KT P6SM BKN050=



000
FTUS45 KLKN 140527
TAFEKO
TAF
KEKO 140527Z 1406/1506 VRB03KT P6SM OVC120
     FM141200 24003KT P6SM VCSH OVC050
     FM141800 25010KT P6SM -SHRA OVC040=



000
FTUS45 KLKN 132320
TAFELY
TAF
KELY 132320Z 1400/1424 32005KT P6SM FEW150
     FM140600 17008KT P6SM BKN120=



000
FTUS45 KLKN 132320
TAFEKO
TAF
KEKO 132320Z 1400/1424 VRB06KT P6SM FEW150
     FM141200 VRB03KT P6SM VCSH SCT080 BKN120
      TEMPO 1420/1424 OVC045=



000
FTUS45 KLKN 132320
TAFEKO
TAF
KEKO 132320Z 1400/1424 VRB06KT P6SM FEW150
     FM141200 VRB03KT P6SM VCSH SCT080 BKN120
      TEMPO 1420/1424 OVC045=



000
FTUS45 KLKN 132320
TAFWMC
TAF
KWMC 132320Z 1400/1424 24008KT P6SM FEW150
     FM140400 16005KT P6SM BKN120
     FM141500 21007KT P6SM BKN100 OVC200
     FM142000 25010KT P6SM SCT080 OVC120=



000
FTUS45 KLKN 132320
TAFWMC
TAF
KWMC 132320Z 1400/1424 24008KT P6SM FEW150
     FM140400 16005KT P6SM BKN120
     FM141500 21007KT P6SM BKN100 OVC200
     FM142000 25010KT P6SM SCT080 OVC120=



000
FTUS45 KLKN 132320
TAFTPH
TAF
KTPH 132320Z 1400/1424 01011KT P6SM SCT150=



000
FTUS45 KLKN 132320
TAFELY
TAF
KELY 132320Z 1400/1424 32005KT P6SM FEW150
     FM140600 17008KT P6SM BKN120=



000
FTUS45 KLKN 132320
TAFTPH
TAF
KTPH 132320Z 1400/1424 01011KT P6SM SCT150=



000
FTUS45 KLKN 132320
TAFELY
TAF
KELY 132320Z 1400/1424 32005KT P6SM FEW150
     FM140600 17008KT P6SM BKN120=



000
FTUS45 KLKN 132320
TAFEKO
TAF
KEKO 132320Z 1400/1424 VRB06KT P6SM FEW150
     FM141200 VRB03KT P6SM VCSH SCT080 BKN120
      TEMPO 1420/1424 OVC045=



000
FTUS45 KLKN 132320
TAFWMC
TAF
KWMC 132320Z 1400/1424 24008KT P6SM FEW150
     FM140400 16005KT P6SM BKN120
     FM141500 21007KT P6SM BKN100 OVC200
     FM142000 25010KT P6SM SCT080 OVC120=



000
FTUS45 KLKN 132320
TAFTPH
TAF
KTPH 132320Z 1400/1424 01011KT P6SM SCT150=



000
FTUS45 KLKN 131726
TAFTPH
TAF
KTPH 131726Z 1318/1418 01011KT P6SM SCT150=



000
FTUS45 KLKN 131726
TAFELY
TAF
KELY 131726Z 1318/1418 17011KT P6SM BKN150
     FM132000 32005KT P6SM FEW150
     FM140600 17008KT P6SM BKN120=



000
FTUS45 KLKN 131726
TAFEKO
TAF
KEKO 131726Z 1318/1418 VRB06KT P6SM FEW150
     FM141200 VRB03KT P6SM VCSH SCT080 BKN120=



000
FTUS45 KLKN 131726
TAFWMC
TAF
KWMC 131726Z 1318/1418 05005KT P6SM FEW150
     FM140400 16005KT P6SM BKN120
     FM141500 21007KT P6SM BKN100 OVC200=



000
FTUS45 KLKN 131726
TAFELY
TAF
KELY 131726Z 1318/1418 17011KT P6SM BKN150
     FM132000 32005KT P6SM FEW150
     FM140600 17008KT P6SM BKN120=



000
FTUS45 KLKN 131726
TAFWMC
TAF
KWMC 131726Z 1318/1418 05005KT P6SM FEW150
     FM140400 16005KT P6SM BKN120
     FM141500 21007KT P6SM BKN100 OVC200=



000
FTUS45 KLKN 131726
TAFEKO
TAF
KEKO 131726Z 1318/1418 VRB06KT P6SM FEW150
     FM141200 VRB03KT P6SM VCSH SCT080 BKN120=



000
FTUS45 KLKN 131726
TAFTPH
TAF
KTPH 131726Z 1318/1418 01011KT P6SM SCT150=



000
FTUS45 KLKN 131120
TAFELY
TAF
KELY 131120Z 1312/1412 17011KT P6SM BKN150
     FM132000 VRB05KT P6SM FEW150=



000
FTUS45 KLKN 131120
TAFWMC
TAF
KWMC 131120Z 1312/1412 05005KT P6SM FEW150
     FM140400 16005KT P6SM BKN120=



000
FTUS45 KLKN 131120
TAFTPH
TAF
KTPH 131120Z 1312/1412 36011KT P6SM BKN150=



000
FTUS45 KLKN 131120
TAFWMC
TAF
KWMC 131120Z 1312/1412 05005KT P6SM FEW150
     FM140400 16005KT P6SM BKN120=



000
FTUS45 KLKN 131120
TAFEKO
TAF
KEKO 131120Z 1312/1412 VRB03KT P6SM BKN150
     FM131800 23006KT P6SM FEW150
     FM140400 VRB03KT P6SM BKN120=



000
FTUS45 KLKN 131120
TAFEKO
TAF
KEKO 131120Z 1312/1412 VRB03KT P6SM BKN150
     FM131800 23006KT P6SM FEW150
     FM140400 VRB03KT P6SM BKN120=



000
FTUS45 KLKN 131120
TAFWMC
TAF
KWMC 131120Z 1312/1412 05005KT P6SM FEW150
     FM140400 16005KT P6SM BKN120=



000
FTUS45 KLKN 131120
TAFTPH
TAF
KTPH 131120Z 1312/1412 36011KT P6SM BKN150=



000
FTUS45 KLKN 131120
TAFEKO
TAF
KEKO 131120Z 1312/1412 VRB03KT P6SM BKN150
     FM131800 23006KT P6SM FEW150
     FM140400 VRB03KT P6SM BKN120=



000
FTUS45 KLKN 131120
TAFELY
TAF
KELY 131120Z 1312/1412 17011KT P6SM BKN150
     FM132000 VRB05KT P6SM FEW150=



000
FTUS45 KLKN 131120
TAFTPH
TAF
KTPH 131120Z 1312/1412 36011KT P6SM BKN150=



000
FTUS45 KLKN 131120
TAFELY
TAF
KELY 131120Z 1312/1412 17011KT P6SM BKN150
     FM132000 VRB05KT P6SM FEW150=



000
FTUS45 KLKN 130524
TAFTPH
TAF
KTPH 130524Z 1306/1406 36010KT P6SM BKN200=



000
FTUS45 KLKN 130524
TAFEKO
TAF
KEKO 130524Z 1306/1406 VRB03KT P6SM BKN200=



000
FTUS45 KLKN 130524
TAFWMC
TAF
KWMC 130524Z 1306/1406 05005KT P6SM BKN200=



000
FTUS45 KLKN 130524
TAFELY
TAF
KELY 130524Z 1306/1406 17011KT P6SM BKN200
     FM132000 VRB05KT P6SM FEW200=



000
FTUS45 KLKN 122320
TAFWMC
TAF
KWMC 122320Z 1300/1324 05008KT P6SM BKN200=



000
FTUS45 KLKN 122320
TAFTPH
TAF
KTPH 122320Z 1300/1324 VRB06KT P6SM BKN250
     FM131800 35011KT P6SM SCT250=



000
FTUS45 KLKN 122320
TAFEKO
TAF
KEKO 122320Z 1300/1324 VRB04KT P6SM BKN250=



000
FTUS45 KLKN 122320
TAFELY
TAF
KELY 122320Z 1300/1324 VRB06KT P6SM BKN250
     FM131900 24006KT P6SM BKN250=



000
FTUS45 KLKN 121734
TAFEKO
TAF
KEKO 121734Z 1218/1318 VRB04KT P6SM BKN250=



000
FTUS45 KLKN 121734
TAFELY
TAF
KELY 121734Z 1218/1318 17015KT P6SM BKN250
     FM121900 19006KT P6SM BKN250=



000
FTUS45 KLKN 121734
TAFWMC
TAF
KWMC 121734Z 1218/1318 VRB05KT P6SM BKN200=



000
FTUS45 KLKN 121734
TAFTPH
TAF
KTPH 121734Z 1218/1318 36011KT P6SM BKN250
     FM121900 VRB05KT P6SM SCT250=



000
FTUS45 KLKN 121120
TAFTPH
TAF
KTPH 121120Z 1212/1312 36011KT P6SM BKN250
     FM121700 VRB05KT P6SM SCT250=



000
FTUS45 KLKN 121120
TAFWMC
TAF
KWMC 121120Z 1212/1312 VRB05KT P6SM BKN200=



000
FTUS45 KLKN 121120
TAFTPH
TAF
KTPH 121120Z 1212/1312 36011KT P6SM BKN250
     FM121700 VRB05KT P6SM SCT250=



000
FTUS45 KLKN 121120
TAFWMC
TAF
KWMC 121120Z 1212/1312 VRB05KT P6SM BKN200=



000
FTUS45 KLKN 121120
TAFELY
TAF
KELY 121120Z 1212/1312 17015KT P6SM BKN250
     FM121900 19006KT P6SM BKN250=



000
FTUS45 KLKN 121120
TAFEKO
TAF
KEKO 121120Z 1212/1312 VRB04KT P6SM BKN250=



000
FTUS45 KLKN 121120
TAFTPH
TAF
KTPH 121120Z 1212/1312 36011KT P6SM BKN250
     FM121700 VRB05KT P6SM SCT250=



000
FTUS45 KLKN 121120
TAFELY
TAF
KELY 121120Z 1212/1312 17015KT P6SM BKN250
     FM121900 19006KT P6SM BKN250=



000
FTUS45 KLKN 121120
TAFWMC
TAF
KWMC 121120Z 1212/1312 VRB05KT P6SM BKN200=



000
FTUS45 KLKN 121120
TAFELY
TAF
KELY 121120Z 1212/1312 17015KT P6SM BKN250
     FM121900 19006KT P6SM BKN250=



000
FTUS45 KLKN 121120
TAFEKO
TAF
KEKO 121120Z 1212/1312 VRB04KT P6SM BKN250=



000
FTUS45 KLKN 121120
TAFEKO
TAF
KEKO 121120Z 1212/1312 VRB04KT P6SM BKN250=



000
FTUS45 KLKN 121008 AAA
TAFEKO
TAF AMD
KEKO 121008Z 1210/1306 06005KT P6SM BKN250=



000
FTUS45 KLKN 121008 AAA
TAFEKO
TAF AMD
KEKO 121008Z 1210/1306 06005KT P6SM BKN250=



000
FTUS45 KLKN 120520
TAFTPH
TAF
KTPH 120520Z 1206/1306 01011KT P6SM BKN200
     FM122000 VRB05KT P6SM SCT200=



000
FTUS45 KLKN 120520
TAFEKO
TAF
KEKO 120520Z 1206/1306 VRB05KT P6SM BKN250
     FM121400 VRB02KT 3SM -SN BR BKN005
     FM121700 VRB05KT P6SM SCT010 BKN200
     FM121900 VRB05KT P6SM BKN200=



000
FTUS45 KLKN 120520
TAFWMC
TAF
KWMC 120520Z 1206/1306 06006KT P6SM SCT120 BKN200=



000
FTUS45 KLKN 120520
TAFELY
TAF
KELY 120520Z 1206/1306 17010KT P6SM BKN200
     FM121900 19005KT P6SM BKN200=



000
FTUS45 KLKN 120520
TAFWMC
TAF
KWMC 120520Z 1206/1306 06006KT P6SM SCT120 BKN200=



000
FTUS45 KLKN 112320
TAFWMC
TAF
KWMC 112320Z 1200/1224 05010KT P6SM BKN200
     FM120200 10006KT P6SM SCT120 BKN200=



000
FTUS45 KLKN 112320
TAFEKO
TAF
KEKO 112320Z 1200/1224 05006KT P6SM BKN250
     FM121400 VRB02KT 3SM -SN BR BKN005
     FM121700 VRB05KT P6SM SCT010 BKN200=



000
FTUS45 KLKN 112320
TAFTPH
TAF
KTPH 112320Z 1200/1224 VRB04KT P6SM BKN250
     FM120200 01008KT P6SM BKN200
     FM122000 VRB05KT P6SM SCT200=



000
FTUS45 KLKN 112320
TAFEKO
TAF
KEKO 112320Z 1200/1224 05006KT P6SM BKN250
     FM121400 VRB02KT 3SM -SN BR BKN005
     FM121700 VRB05KT P6SM SCT010 BKN200=



000
FTUS45 KLKN 112320
TAFELY
TAF
KELY 112320Z 1200/1224 18006KT P6SM BKN250
     FM120400 17013KT P6SM BKN200
     FM121900 19005KT P6SM BKN200=



000
FTUS45 KLKN 112320
TAFWMC
TAF
KWMC 112320Z 1200/1224 05010KT P6SM BKN200
     FM120200 10006KT P6SM SCT120 BKN200=



000
FTUS45 KLKN 112320
TAFELY
TAF
KELY 112320Z 1200/1224 18006KT P6SM BKN250
     FM120400 17013KT P6SM BKN200
     FM121900 19005KT P6SM BKN200=



000
FTUS45 KLKN 112320
TAFTPH
TAF
KTPH 112320Z 1200/1224 VRB04KT P6SM BKN250
     FM120200 01008KT P6SM BKN200
     FM122000 VRB05KT P6SM SCT200=



000
FTUS45 KLKN 112320
TAFWMC
TAF
KWMC 112320Z 1200/1224 05010KT P6SM BKN200
     FM120200 10006KT P6SM SCT120 BKN200=



000
FTUS45 KLKN 112320
TAFEKO
TAF
KEKO 112320Z 1200/1224 05006KT P6SM BKN250
     FM121400 VRB02KT 3SM -SN BR BKN005
     FM121700 VRB05KT P6SM SCT010 BKN200=



000
FTUS45 KLKN 112320
TAFELY
TAF
KELY 112320Z 1200/1224 18006KT P6SM BKN250
     FM120400 17013KT P6SM BKN200
     FM121900 19005KT P6SM BKN200=



000
FTUS45 KLKN 112320
TAFTPH
TAF
KTPH 112320Z 1200/1224 VRB04KT P6SM BKN250
     FM120200 01008KT P6SM BKN200
     FM122000 VRB05KT P6SM SCT200=



000
FTUS45 KLKN 111720
TAFEKO
TAF
KEKO 111720Z 1118/1218 05006KT P6SM BKN250
     FM121400 VRB02KT 3SM -SN BR BKN005
     FM121700 VRB05KT P6SM SCT010 BKN200=



000
FTUS45 KLKN 111720
TAFTPH
TAF
KTPH 111720Z 1118/1218 VRB04KT P6SM BKN250
     FM120200 01008KT P6SM SCT250=



000
FTUS45 KLKN 111720
TAFELY
TAF
KELY 111720Z 1118/1218 17013KT P6SM BKN250
     FM112100 18006KT P6SM BKN250
     FM120400 17013KT P6SM BKN200=



000
FTUS45 KLKN 111720
TAFWMC
TAF
KWMC 111720Z 1118/1218 05010KT P6SM BKN200
     FM120200 10006KT P6SM SCT120 BKN200=



000
FTUS45 KLKN 111720
TAFEKO
TAF
KEKO 111720Z 1118/1218 05006KT P6SM BKN250
     FM121400 VRB02KT 3SM -SN BR BKN005
     FM121700 VRB05KT P6SM SCT010 BKN200=



000
FTUS45 KLKN 111720
TAFWMC
TAF
KWMC 111720Z 1118/1218 05010KT P6SM BKN200
     FM120200 10006KT P6SM SCT120 BKN200=



000
FTUS45 KLKN 111720
TAFTPH
TAF
KTPH 111720Z 1118/1218 VRB04KT P6SM BKN250
     FM120200 01008KT P6SM SCT250=



000
FTUS45 KLKN 111720
TAFELY
TAF
KELY 111720Z 1118/1218 17013KT P6SM BKN250
     FM112100 18006KT P6SM BKN250
     FM120400 17013KT P6SM BKN200=



000
FTUS45 KLKN 111432 AAA
TAFEKO
TAF AMD
KEKO 111432Z 1115/1212 08006KT P6SM BKN250=



000
FTUS45 KLKN 111124
TAFTPH
TAF
KTPH 111124Z 1112/1212 36008KT P6SM SCT250
     FM111800 VRB04KT P6SM SCT250
     FM120200 01008KT P6SM SCT250=



000
FTUS45 KLKN 111124
TAFEKO
TAF
KEKO 111124Z 1112/1212 05006KT P6SM BKN200
      TEMPO 1114/1117 1SM BR BKN002=



000
FTUS45 KLKN 111124
TAFELY
TAF
KELY 111124Z 1112/1212 17013KT P6SM BKN250
     FM111900 18006KT P6SM BKN250=



000
FTUS45 KLKN 111124
TAFWMC
TAF
KWMC 111124Z 1112/1212 06008KT P6SM BKN200=



    US Dept of Commerce
    National Oceanic and Atmospheric Administration
    National Weather Service
    1325 East West Highway
    Silver Spring, MD 20910
    Page Author: NWS Internet Services Team
Disclaimer
Information Quality
Credits
Glossary
Privacy Policy
Freedom of Information Act (FOIA)
About Us
Career Opportunities